Time;durP1;ratioP1;P1;durP2;ratioP2;P2;SDS_P1;SDS_P2;PMS_P1;PMS_P2;Temp;Humidity;BMP_temperature;BMP_pressure;BME280_temperature;BME280_humidity;BME280_pressure;Samples;Min_cycle;Max_cycle;Signal;HPM_P1;HPM_P2
2022/07/08 00:00:37;;;;;;;1.67;1.13;;;22.40;99.90;;;;;;5078459;28;20254;-73
2022/07/08 00:03:04;;;;;;;2.63;1.15;;;22.40;99.90;;;;;;5092418;28;20657;-73
2022/07/08 00:05:31;;;;;;;1.77;1.10;;;22.50;99.90;;;;;;5092304;28;20266;-74
2022/07/08 00:07:58;;;;;;;2.58;1.60;;;22.40;99.90;;;;;;5092504;28;20198;-74
2022/07/08 00:10:26;;;;;;;2.67;1.95;;;22.40;99.90;;;;;;5092603;28;20266;-72
2022/07/08 00:12:53;;;;;;;3.10;1.17;;;22.30;99.90;;;;;;5092329;28;20217;-72
2022/07/08 00:15:21;;;;;;;2.05;1.67;;;22.30;99.90;;;;;;5092387;28;20229;-72
2022/07/08 00:17:48;;;;;;;4.38;1.35;;;22.20;99.90;;;;;;5092806;28;20197;-73
2022/07/08 00:20:15;;;;;;;2.00;1.80;;;22.30;99.90;;;;;;5092188;28;20251;-71
2022/07/08 00:22:42;;;;;;;2.10;1.67;;;22.20;99.90;;;;;;5092477;28;20259;-73
2022/07/08 00:25:10;;;;;;;5.75;2.53;;;22.10;99.90;;;;;;5092313;28;20205;-72
2022/07/08 00:27:37;;;;;;;2.25;2.05;;;22.10;99.90;;;;;;5092264;28;20267;-72
2022/07/08 00:30:05;;;;;;;2.72;2.10;;;22.10;99.90;;;;;;5092139;28;20255;-73
2022/07/08 00:32:33;;;;;;;3.63;2.03;;;22.00;99.90;;;;;;5092149;28;20254;-72
2022/07/08 00:35:00;;;;;;;2.67;2.08;;;22.10;99.90;;;;;;5091616;28;20225;-73
2022/07/08 00:37:27;;;;;;;1.92;1.58;;;22.00;99.90;;;;;;5092203;28;20742;-72
2022/07/08 00:39:54;;;;;;;2.10;1.90;;;22.00;99.90;;;;;;5091480;28;20251;-72
2022/07/08 00:42:21;;;;;;;2.70;1.98;;;21.90;99.90;;;;;;5092144;28;20239;-72
2022/07/08 00:44:48;;;;;;;2.40;1.95;;;22.00;99.90;;;;;;5092278;28;20247;-72
2022/07/08 00:47:15;;;;;;;2.08;1.50;;;21.90;99.90;;;;;;5092071;28;20255;-72
2022/07/08 00:49:44;;;;;;;2.40;1.95;;;21.90;99.90;;;;;;5091545;28;20209;-75
2022/07/08 00:52:11;;;;;;;2.65;1.33;;;21.90;99.90;;;;;;5091981;28;20206;-73
2022/07/08 00:54:38;;;;;;;2.63;2.42;;;21.90;99.90;;;;;;5091648;28;20278;-72
2022/07/08 00:57:06;;;;;;;3.97;2.67;;;22.00;99.90;;;;;;5091424;28;20626;-72
2022/07/08 00:59:33;;;;;;;1.63;1.40;;;22.00;99.90;;;;;;5082801;28;20256;-73
2022/07/08 01:02:00;;;;;;;1.63;1.40;;;22.00;99.90;;;;;;5085831;28;20278;-74
2022/07/08 01:04:27;;;;;;;1.55;1.45;;;21.90;99.90;;;;;;5091883;28;20237;-73
2022/07/08 01:06:55;;;;;;;2.20;1.95;;;21.90;99.90;;;;;;5091272;28;20673;-73
2022/07/08 01:09:23;;;;;;;1.90;1.70;;;21.90;99.90;;;;;;5091485;28;20209;-73
2022/07/08 01:11:50;;;;;;;2.72;1.23;;;22.00;99.90;;;;;;5090977;28;20217;-71
2022/07/08 01:14:18;;;;;;;2.20;1.35;;;22.00;99.90;;;;;;5091332;28;20237;-72
2022/07/08 01:16:45;;;;;;;1.88;1.15;;;21.90;99.90;;;;;;5091875;28;20204;-72
2022/07/08 01:19:12;;;;;;;4.47;1.33;;;21.80;99.90;;;;;;5090885;28;20209;-73
2022/07/08 01:21:40;;;;;;;3.80;1.30;;;21.70;99.90;;;;;;5091344;28;20260;-73
2022/07/08 01:24:08;;;;;;;1.60;1.33;;;21.70;99.90;;;;;;5091082;28;20270;-72
2022/07/08 01:26:35;;;;;;;1.70;1.60;;;21.70;99.90;;;;;;5091211;28;20668;-72
2022/07/08 01:29:02;;;;;;;2.15;1.40;;;21.60;99.90;;;;;;5090802;28;20205;-75
2022/07/08 01:31:29;;;;;;;1.67;1.52;;;21.70;99.90;;;;;;5090965;28;20235;-71
2022/07/08 01:33:56;;;;;;;1.92;1.70;;;21.70;99.90;;;;;;5090972;28;20202;-73
2022/07/08 01:36:23;;;;;;;1.65;1.50;;;21.60;99.90;;;;;;5091115;28;20197;-72
2022/07/08 01:38:51;;;;;;;7.57;1.90;;;21.50;99.90;;;;;;5091206;28;20258;-73
2022/07/08 01:41:18;;;;;;;3.53;1.95;;;21.50;99.90;;;;;;5091258;28;20681;-71
2022/07/08 01:43:45;;;;;;;1.20;1.10;;;21.50;99.90;;;;;;5091346;28;20251;-72
2022/07/08 01:46:12;;;;;;;1.67;1.58;;;21.40;99.90;;;;;;5090453;28;20209;-74
2022/07/08 01:48:39;;;;;;;3.00;1.40;;;21.40;99.90;;;;;;5091090;28;20205;-72
2022/07/08 01:51:06;;;;;;;1.27;1.17;;;21.40;99.90;;;;;;5090544;28;20205;-73
2022/07/08 01:53:33;;;;;;;1.25;1.13;;;21.30;99.90;;;;;;5090771;28;20250;-72
2022/07/08 01:56:01;;;;;;;1.95;1.50;;;21.20;99.90;;;;;;5090316;28;20312;-71
2022/07/08 01:58:28;;;;;;;1.55;1.23;;;21.20;99.90;;;;;;5078737;28;20198;-71
2022/07/08 02:00:56;;;;;;;1.80;1.55;;;21.00;99.90;;;;;;5070050;28;20255;-71
2022/07/08 02:03:23;;;;;;;3.47;1.60;;;20.90;99.90;;;;;;5074018;28;20673;-72
2022/07/08 02:05:50;;;;;;;1.92;1.15;;;20.80;99.90;;;;;;5089953;28;20205;-72
2022/07/08 02:08:17;;;;;;;3.08;1.05;;;20.80;99.90;;;;;;5076830;28;20243;-72
2022/07/08 02:13:29;;;;;;;1.58;1.35;;;20.70;99.90;;;;;;5090493;28;20583;-72
2022/07/08 02:15:57;;;;;;;1.48;1.15;;;20.50;99.90;;;;;;5078963;28;20229;-72
2022/07/08 02:18:23;;;;;;;1.50;1.15;;;20.50;99.90;;;;;;5087968;28;20254;-72
2022/07/08 02:20:51;;;;;;;3.88;1.25;;;20.50;99.90;;;;;;5090535;28;20664;-71
2022/07/08 02:23:18;;;;;;;1.98;1.33;;;20.50;99.90;;;;;;5090648;28;20672;-71
2022/07/08 02:25:45;;;;;;;2.58;1.30;;;20.40;99.90;;;;;;5094390;28;20206;-71
2022/07/08 02:28:12;;;;;;;1.30;1.00;;;20.30;99.90;;;;;;5094609;28;20209;-71
2022/07/08 02:30:40;;;;;;;1.08;0.98;;;20.30;99.90;;;;;;5080633;28;20288;-72
2022/07/08 02:33:07;;;;;;;2.10;1.42;;;20.20;99.90;;;;;;5081923;28;20206;-73
2022/07/08 02:35:34;;;;;;;1.70;1.33;;;20.20;99.90;;;;;;5092594;28;20282;-72
2022/07/08 02:38:01;;;;;;;1.40;1.27;;;20.10;99.90;;;;;;5094141;28;20669;-73
2022/07/08 02:40:28;;;;;;;3.75;1.55;;;20.20;99.90;;;;;;5094269;28;20209;-73
2022/07/08 02:42:55;;;;;;;3.00;1.27;;;20.20;99.90;;;;;;5093845;28;20665;-72
2022/07/08 02:45:22;;;;;;;3.58;1.45;;;20.20;99.90;;;;;;5094099;28;20202;-73
2022/07/08 02:47:50;;;;;;;2.05;1.30;;;20.20;99.90;;;;;;5094712;28;20255;-72
2022/07/08 02:50:17;;;;;;;2.53;1.13;;;20.10;99.90;;;;;;5094435;28;20270;-73
2022/07/08 02:52:44;;;;;;;2.53;1.80;;;20.10;99.90;;;;;;5094794;28;20205;-72
2022/07/08 02:55:11;;;;;;;1.40;1.30;;;20.20;99.90;;;;;;5093758;28;20290;-73
2022/07/08 02:57:38;;;;;;;2.05;1.58;;;20.10;99.90;;;;;;5094129;28;20210;-73
2022/07/08 03:00:07;;;;;;;2.83;1.65;;;19.90;99.90;;;;;;5093642;28;20612;-73
2022/07/08 03:02:34;;;;;;;3.10;1.40;;;19.80;99.90;;;;;;5094006;28;20202;-72
2022/07/08 03:05:02;;;;;;;4.57;1.63;;;19.80;99.90;;;;;;5093578;28;20263;-74
2022/07/08 03:07:29;;;;;;;2.92;1.55;;;19.70;99.90;;;;;;5087102;28;20217;-72
2022/07/08 03:09:56;;;;;;;1.63;1.52;;;19.60;99.90;;;;;;5093855;28;20258;-72
2022/07/08 03:12:23;;;;;;;2.42;1.80;;;19.60;99.90;;;;;;5093554;28;20217;-73
2022/07/08 03:14:50;;;;;;;3.20;1.55;;;19.50;99.90;;;;;;5093636;28;20237;-72
2022/07/08 03:17:17;;;;;;;1.80;1.70;;;19.50;99.90;;;;;;5093954;28;20243;-72
2022/07/08 03:19:44;;;;;;;1.55;1.40;;;19.60;99.90;;;;;;5094063;28;20209;-73
2022/07/08 03:22:12;;;;;;;3.05;2.42;;;19.50;99.90;;;;;;5093312;28;20209;-72
2022/07/08 03:24:39;;;;;;;2.83;2.47;;;19.40;99.90;;;;;;5093742;28;20274;-72
2022/07/08 03:27:06;;;;;;;2.53;1.60;;;19.40;99.90;;;;;;5092952;28;20212;-71
2022/07/08 03:29:33;;;;;;;2.90;1.80;;;19.40;99.90;;;;;;5093465;28;20677;-72
2022/07/08 03:32:00;;;;;;;1.83;1.65;;;19.30;99.90;;;;;;5093044;28;20209;-73
2022/07/08 03:34:27;;;;;;;3.90;1.73;;;19.40;99.90;;;;;;5093083;28;20206;-74
2022/07/08 03:36:54;;;;;;;3.13;2.65;;;19.40;99.90;;;;;;5092632;28;20267;-71
2022/07/08 03:39:22;;;;;;;4.53;1.75;;;19.30;99.90;;;;;;5093300;28;20202;-73
2022/07/08 03:41:49;;;;;;;2.40;1.80;;;19.30;99.90;;;;;;5093142;28;20271;-73
2022/07/08 03:44:16;;;;;;;5.60;2.70;;;19.30;99.90;;;;;;5093211;28;20212;-73
2022/07/08 03:46:43;;;;;;;4.07;3.00;;;19.30;99.90;;;;;;5093221;28;20209;-71
2022/07/08 03:49:10;;;;;;;3.35;2.03;;;19.10;99.90;;;;;;5092764;28;20209;-71
2022/07/08 03:51:37;;;;;;;2.50;2.08;;;19.10;99.90;;;;;;5093158;28;20209;-71
2022/07/08 03:54:04;;;;;;;2.08;1.73;;;19.20;99.90;;;;;;5092732;28;20217;-72
2022/07/08 03:56:32;;;;;;;2.88;1.85;;;19.20;99.90;;;;;;5092716;28;20233;-72
2022/07/08 03:58:59;;;;;;;2.40;2.20;;;19.30;99.90;;;;;;5092505;28;20206;-73
2022/07/08 04:01:26;;;;;;;2.83;1.92;;;19.10;99.90;;;;;;5092993;28;20205;-75
2022/07/08 04:03:53;;;;;;;5.78;2.40;;;19.20;99.90;;;;;;5092768;28;20250;-72
2022/07/08 04:06:20;;;;;;;3.50;1.70;;;19.20;99.90;;;;;;5088034;28;20268;-73
2022/07/08 04:08:47;;;;;;;2.53;1.77;;;19.00;99.90;;;;;;5083875;28;20205;-72
2022/07/08 04:11:14;;;;;;;4.57;2.03;;;19.10;99.90;;;;;;5092300;28;20213;-73
2022/07/08 04:13:43;;;;;;;2.40;2.13;;;19.00;99.90;;;;;;5092754;28;20210;-73
2022/07/08 04:16:12;;;;;;;2.63;2.05;;;19.00;99.90;;;;;;5092033;28;20290;-72
2022/07/08 04:18:39;;;;;;;4.95;1.70;;;19.10;99.90;;;;;;5092798;28;20205;-72
2022/07/08 04:21:07;;;;;;;3.35;2.30;;;18.90;99.90;;;;;;5092242;28;20205;-72
2022/07/08 04:23:34;;;;;;;4.10;2.33;;;18.90;99.90;;;;;;5092560;28;20288;-72
2022/07/08 04:26:01;;;;;;;6.18;3.20;;;18.80;99.90;;;;;;5091777;28;20296;-73
2022/07/08 04:28:28;;;;;;;4.30;2.22;;;18.80;99.90;;;;;;5092223;28;20201;-73
2022/07/08 04:30:57;;;;;;;3.15;1.52;;;18.80;99.90;;;;;;5091962;28;20237;-72
2022/07/08 04:33:24;;;;;;;2.97;1.58;;;18.70;99.90;;;;;;5092107;28;20205;-74
2022/07/08 04:35:51;;;;;;;3.60;1.90;;;18.70;99.90;;;;;;5092117;28;20662;-73
2022/07/08 04:38:18;;;;;;;3.60;2.22;;;18.70;99.90;;;;;;5092356;28;20208;-73
2022/07/08 04:40:45;;;;;;;2.22;1.90;;;18.90;99.90;;;;;;5092373;28;20210;-74
2022/07/08 04:43:12;;;;;;;3.95;1.95;;;18.90;99.90;;;;;;5091946;28;20267;-74
2022/07/08 04:45:39;;;;;;;4.68;2.08;;;18.90;99.90;;;;;;5078298;28;20209;-73
2022/07/08 04:48:07;;;;;;;4.50;2.08;;;18.80;99.90;;;;;;5090828;28;20734;-74
2022/07/08 04:50:34;;;;;;;5.75;2.40;;;18.90;99.90;;;;;;5091796;28;20246;-75
2022/07/08 04:53:01;;;;;;;5.25;2.05;;;18.90;99.90;;;;;;5091537;28;20665;-73
2022/07/08 04:55:29;;;;;;;2.53;1.80;;;18.70;99.90;;;;;;5091204;28;20700;-72
2022/07/08 04:57:57;;;;;;;2.35;2.15;;;18.80;99.90;;;;;;5091366;28;20209;-72
2022/07/08 05:00:24;;;;;;;3.28;2.47;;;18.70;99.90;;;;;;5091543;28;20209;-75
2022/07/08 05:02:52;;;;;;;3.08;2.38;;;18.70;99.90;;;;;;5091026;28;20202;-72
2022/07/08 05:05:21;;;;;;;3.75;2.33;;;18.90;99.90;;;;;;5091962;28;20213;-73
2022/07/08 05:07:48;;;;;;;16.33;2.95;;;18.90;99.90;;;;;;5077316;28;20233;-74
2022/07/08 05:10:16;;;;;;;2.50;1.75;;;18.80;99.90;;;;;;5091636;28;20241;-73
2022/07/08 05:12:43;;;;;;;5.70;2.58;;;19.00;99.90;;;;;;5091419;28;20304;-72
2022/07/08 05:15:11;;;;;;;3.30;2.40;;;19.00;99.90;;;;;;5091075;28;20697;-73
2022/07/08 05:17:38;;;;;;;9.02;3.90;;;19.00;99.90;;;;;;5091473;28;20208;-72
2022/07/08 05:20:07;;;;;;;3.67;2.40;;;19.00;99.90;;;;;;5090834;28;20205;-74
2022/07/08 05:22:36;;;;;;;3.58;2.08;;;19.00;99.90;;;;;;5091356;28;20738;-73
2022/07/08 05:25:04;;;;;;;6.07;2.28;;;19.10;99.90;;;;;;5090568;28;20210;-74
2022/07/08 05:27:31;;;;;;;4.10;2.20;;;19.10;99.90;;;;;;5091567;28;20201;-75
2022/07/08 05:29:58;;;;;;;4.65;2.40;;;19.00;99.90;;;;;;5090863;28;20205;-74
2022/07/08 05:32:25;;;;;;;3.78;2.47;;;19.00;99.90;;;;;;5091152;28;20673;-73
2022/07/08 05:34:52;;;;;;;3.20;2.22;;;19.10;99.90;;;;;;5090524;28;20661;-75
2022/07/08 05:37:19;;;;;;;3.22;2.42;;;19.20;99.90;;;;;;5090949;28;20213;-74
2022/07/08 05:39:48;;;;;;;4.53;2.80;;;19.30;99.90;;;;;;5091441;28;20228;-75
2022/07/08 05:42:15;;;;;;;3.53;2.53;;;19.40;99.90;;;;;;5091305;28;20206;-74
2022/07/08 05:44:42;;;;;;;2.60;2.40;;;19.30;99.90;;;;;;5091214;28;20201;-75
2022/07/08 05:47:09;;;;;;;3.15;2.50;;;19.40;99.90;;;;;;5090608;28;20262;-75
2022/07/08 05:49:37;;;;;;;4.22;2.47;;;19.50;99.90;;;;;;5090959;28;20292;-75
2022/07/08 05:52:05;;;;;;;3.20;2.30;;;19.40;99.90;;;;;;5090402;28;20212;-73
2022/07/08 05:54:32;;;;;;;3.78;2.33;;;19.30;99.90;;;;;;5090997;28;20258;-75
2022/07/08 05:57:00;;;;;;;3.53;2.17;;;19.40;99.90;;;;;;5090548;28;20233;-72
2022/07/08 05:59:28;;;;;;;2.97;2.45;;;19.50;99.90;;;;;;5090612;28;20247;-74
2022/07/08 06:01:56;;;;;;;9.48;3.00;;;19.60;99.90;;;;;;5090308;28;20665;-71
2022/07/08 06:04:23;;;;;;;8.45;3.17;;;19.80;99.90;;;;;;5077035;28;20209;-73
2022/07/08 06:06:50;;;;;;;6.10;3.50;;;19.70;99.90;;;;;;5081837;28;20206;-72
2022/07/08 06:09:17;;;;;;;4.18;2.80;;;19.70;99.90;;;;;;5085762;28;20224;-72
2022/07/08 06:11:44;;;;;;;5.35;2.78;;;19.60;99.90;;;;;;5090956;28;20209;-72
2022/07/08 06:14:12;;;;;;;4.97;2.55;;;19.50;99.90;;;;;;5090184;28;20267;-73
2022/07/08 06:16:39;;;;;;;3.38;3.08;;;19.60;99.90;;;;;;5090620;28;20675;-74
2022/07/08 06:19:06;;;;;;;3.95;3.28;;;19.70;99.90;;;;;;5090503;28;20247;-74
2022/07/08 06:21:33;;;;;;;6.00;2.85;;;19.80;99.90;;;;;;5090246;28;20205;-72
2022/07/08 06:24:01;;;;;;;2.97;2.70;;;19.70;99.90;;;;;;5090258;28;20206;-72
2022/07/08 06:26:29;;;;;;;5.63;2.80;;;20.00;99.90;;;;;;5090463;28;20300;-73
2022/07/08 06:28:56;;;;;;;5.03;2.60;;;20.00;99.90;;;;;;5090119;28;20198;-72
2022/07/08 06:31:24;;;;;;;3.80;2.83;;;20.20;99.90;;;;;;5090554;28;20209;-72
2022/07/08 06:33:56;;;;;;;4.43;3.08;;;20.20;99.90;;;;;;5090707;28;20206;-72
2022/07/08 06:36:23;;;;;;;5.05;2.80;;;20.30;99.90;;;;;;5090338;28;20229;-72
2022/07/08 06:38:51;;;;;;;3.65;3.03;;;20.20;99.90;;;;;;5076352;28;20204;-74
2022/07/08 06:41:18;;;;;;;3.83;2.90;;;20.20;99.90;;;;;;5090831;28;20288;-74
2022/07/08 06:43:45;;;;;;;5.88;2.67;;;20.30;99.90;;;;;;5090466;28;20202;-73
2022/07/08 06:46:12;;;;;;;5.95;3.38;;;20.50;99.90;;;;;;5090169;28;20222;-72
2022/07/08 06:48:40;;;;;;;6.78;3.47;;;20.60;99.90;;;;;;5090188;28;20587;-74
2022/07/08 06:51:07;;;;;;;4.85;2.70;;;20.60;99.90;;;;;;5089802;28;20208;-73
2022/07/08 06:56:16;;;;;;;4.53;2.45;;;20.70;99.90;;;;;;5090153;28;20222;-72
2022/07/08 06:58:43;;;;;;;3.92;2.80;;;20.70;99.90;;;;;;5090057;28;20684;-73
2022/07/08 07:01:10;;;;;;;3.53;2.40;;;20.80;99.90;;;;;;5089825;28;20206;-73
2022/07/08 07:03:37;;;;;;;4.72;2.97;;;20.90;99.90;;;;;;5090226;28;20224;-73
2022/07/08 07:06:07;;;;;;;4.13;3.08;;;21.00;99.90;;;;;;5087185;28;20209;-74
2022/07/08 07:08:34;;;;;;;4.78;2.78;;;21.10;99.90;;;;;;5078893;28;20630;-73
2022/07/08 07:11:01;;;;;;;5.95;2.28;;;21.10;99.90;;;;;;5091479;28;20206;-75
2022/07/08 07:13:28;;;;;;;3.92;3.08;;;21.10;99.90;;;;;;5094275;28;20206;-75
2022/07/08 07:15:55;;;;;;;2.75;2.40;;;21.20;99.90;;;;;;5093367;28;20229;-74
2022/07/08 07:18:22;;;;;;;4.00;2.67;;;21.50;99.90;;;;;;5093706;28;20205;-74
2022/07/08 07:20:49;;;;;;;4.13;3.17;;;21.70;99.90;;;;;;5093804;28;20209;-73
2022/07/08 07:23:17;;;;;;;3.58;2.05;;;21.70;99.90;;;;;;5093514;28;20237;-74
2022/07/08 07:25:44;;;;;;;2.28;1.73;;;21.80;99.90;;;;;;5094162;28;20262;-75
2022/07/08 07:28:11;;;;;;;5.00;2.55;;;21.90;99.90;;;;;;5093241;28;20217;-75
2022/07/08 07:30:41;;;;;;;3.22;2.92;;;22.10;99.90;;;;;;5090533;28;20252;-73
2022/07/08 07:33:08;;;;;;;3.97;2.10;;;22.30;99.90;;;;;;5089340;28;20197;-75
2022/07/08 07:35:35;;;;;;;5.20;2.33;;;22.50;99.90;;;;;;5090051;28;20699;-74
2022/07/08 07:38:02;;;;;;;4.05;2.70;;;22.30;99.90;;;;;;5090916;28;20255;-71
2022/07/08 07:40:31;;;;;;;5.55;2.15;;;22.20;99.90;;;;;;5090646;28;20247;-72
2022/07/08 07:42:58;;;;;;;4.50;2.60;;;22.20;99.90;;;;;;5090258;28;20220;-71
2022/07/08 07:45:25;;;;;;;2.53;2.33;;;22.30;99.90;;;;;;5089887;28;20259;-72
2022/07/08 07:47:52;;;;;;;2.97;2.05;;;22.30;99.90;;;;;;5081727;28;20267;-72
2022/07/08 07:50:19;;;;;;;6.25;2.58;;;22.30;99.90;;;;;;5072750;28;20259;-72
2022/07/08 07:52:45;;;;;;;2.25;2.05;;;22.40;99.90;;;;;;5072789;28;20206;-74
2022/07/08 07:55:12;;;;;;;5.07;3.35;;;22.50;99.90;;;;;;5072554;28;20206;-71
2022/07/08 07:57:42;;;;;;;4.63;2.00;;;23.10;99.90;;;;;;5089359;28;20286;-72
2022/07/08 08:00:11;;;;;;;4.38;2.00;;;23.20;99.90;;;;;;5092802;28;20304;-73
2022/07/08 08:02:38;;;;;;;4.72;2.72;;;23.10;99.90;;;;;;5092344;28;20288;-72
2022/07/08 08:05:05;;;;;;;3.88;3.17;;;22.90;99.90;;;;;;5092574;28;20266;-71
2022/07/08 08:07:32;;;;;;;2.85;2.65;;;22.90;99.90;;;;;;5079532;28;20263;-71
2022/07/08 08:10:01;;;;;;;2.20;1.98;;;23.20;99.90;;;;;;5087472;28;20201;-71
2022/07/08 08:12:28;;;;;;;2.92;2.42;;;23.20;99.90;;;;;;5090562;28;20266;-71
2022/07/08 08:14:57;;;;;;;3.08;1.90;;;23.50;99.90;;;;;;5090587;28;20209;-70
2022/07/08 08:17:24;;;;;;;2.53;1.77;;;23.50;99.90;;;;;;5088305;28;20278;-71
2022/07/08 08:19:51;;;;;;;2.42;2.00;;;23.80;99.90;;;;;;5089947;28;20205;-71
2022/07/08 08:22:18;;;;;;;4.28;2.75;;;23.80;99.90;;;;;;5088827;28;20587;-71
2022/07/08 08:24:45;;;;;;;2.63;2.38;;;23.90;99.90;;;;;;5090916;28;20251;-70
2022/07/08 08:27:12;;;;;;;2.10;1.85;;;23.90;99.90;;;;;;5088045;28;20217;-71
2022/07/08 08:29:39;;;;;;;2.83;2.28;;;23.80;99.90;;;;;;5091610;28;20205;-71
2022/07/08 08:32:08;;;;;;;5.00;2.38;;;23.70;99.90;;;;;;5088427;28;20213;-71
2022/07/08 08:34:35;;;;;;;5.93;2.45;;;23.80;99.90;;;;;;5089727;28;20201;-72
2022/07/08 08:37:02;;;;;;;2.42;2.22;;;23.80;99.90;;;;;;5088035;28;20709;-70
2022/07/08 08:39:29;;;;;;;2.38;2.17;;;23.80;99.90;;;;;;5084086;28;20210;-71
2022/07/08 08:41:56;;;;;;;2.58;2.35;;;23.90;99.90;;;;;;5071445;28;20210;-72
2022/07/08 08:44:23;;;;;;;3.72;2.33;;;23.90;99.90;;;;;;5077356;28;20226;-72
2022/07/08 08:46:53;;;;;;;2.72;2.15;;;24.20;99.90;;;;;;5091857;28;20275;-73
2022/07/08 08:49:21;;;;;;;3.38;2.88;;;24.50;99.90;;;;;;5091795;28;20251;-72
2022/07/08 08:51:50;;;;;;;4.20;2.33;;;24.50;99.90;;;;;;5092402;28;20210;-73
2022/07/08 08:54:18;;;;;;;5.03;2.67;;;25.30;99.90;;;;;;5092136;28;20722;-72
2022/07/08 08:56:47;;;;;;;4.10;2.35;;;26.10;99.90;;;;;;5091279;28;20237;-71
2022/07/08 08:59:15;;;;;;;4.53;2.80;;;27.20;99.90;;;;;;5089027;28;20746;-70
2022/07/08 09:01:43;;;;;;;5.30;3.63;;;27.60;99.90;;;;;;5089770;28;20258;-72
2022/07/08 09:04:11;;;;;;;3.85;2.78;;;28.70;99.90;;;;;;5088816;28;20202;-74
2022/07/08 09:06:40;;;;;;;3.83;2.50;;;28.20;99.90;;;;;;5089183;28;20232;-73
2022/07/08 09:09:07;;;;;;;3.67;1.90;;;27.20;99.90;;;;;;5089881;28;20205;-73
2022/07/08 09:11:34;;;;;;;3.22;1.55;;;26.30;99.90;;;;;;5073065;28;20210;-75
2022/07/08 09:14:16;;;;;;;2.72;2.53;;;26.00;99.90;;;;;;5071061;28;20206;-73
2022/07/08 09:17:06;;;;;;;2.65;2.00;;;26.30;99.90;;;;;;5070865;28;20236;-72
2022/07/08 09:19:32;;;;;;;2.70;2.50;;;27.90;99.90;;;;;;5070955;28;20682;-72
2022/07/08 09:22:01;;;;;;;4.13;1.85;;;30.20;99.90;;;;;;5070697;28;20677;-72
2022/07/08 09:24:29;;;;;;;1.90;1.70;;;31.70;99.90;;;;;;5077500;28;20206;-72
2022/07/08 09:26:56;;;;;;;4.55;2.17;;;30.60;99.90;;;;;;5091121;28;20299;-73
2022/07/08 09:29:23;;;;;;;4.03;2.22;;;29.70;99.90;;;;;;5091095;28;20282;-72
2022/07/08 09:31:50;;;;;;;2.60;2.08;;;29.40;99.90;;;;;;5091154;28;20209;-72
2022/07/08 09:34:21;;;;;;;3.38;2.17;;;30.50;99.90;;;;;;5090906;28;20627;-72
2022/07/08 09:36:50;;;;;;;3.00;2.13;;;31.20;99.90;;;;;;5091766;28;20225;-74
2022/07/08 09:39:27;;;;;;;3.28;2.97;;;31.40;99.90;;;;;;5091264;28;20205;-73
2022/07/08 09:41:54;;;;;;;5.43;2.95;;;33.50;99.90;;;;;;5090984;28;20212;-73
2022/07/08 09:44:23;;;;;;;3.03;2.30;;;34.70;99.90;;;;;;5090676;28;20634;-74
2022/07/08 09:46:51;;;;;;;3.83;2.47;;;36.20;99.90;;;;;;5083394;28;20202;-72
2022/07/08 09:49:28;;;;;;;7.40;3.90;;;35.40;99.90;;;;;;5084840;28;20627;-74
2022/07/08 09:51:56;;;;;;;4.50;4.10;;;31.00;99.90;;;;;;5087178;28;20211;-73
2022/07/08 09:54:23;;;;;;;3.35;3.03;;;28.40;99.90;;;;;;5088046;28;20207;-72
2022/07/08 09:57:00;;;;;;;3.67;2.40;;;31.40;99.90;;;;;;5089757;28;20225;-72
2022/07/08 09:59:27;;;;;;;2.00;1.90;;;34.50;99.90;;;;;;5089471;28;20196;-72
2022/07/08 10:01:55;;;;;;;3.90;2.50;;;33.60;99.90;;;;;;5087101;28;20247;-72
2022/07/08 10:04:24;;;;;;;2.58;2.38;;;31.00;99.90;;;;;;5087677;28;20236;-71
2022/07/08 10:06:51;;;;;;;3.95;2.95;;;31.40;99.90;;;;;;5086176;28;20209;-71
2022/07/08 10:09:19;;;;;;;4.80;2.45;;;33.30;99.90;;;;;;5088309;28;20211;-71
2022/07/08 10:11:47;;;;;;;1.83;1.73;;;35.20;99.90;;;;;;5088233;28;20257;-72
2022/07/08 10:14:16;;;;;;;3.97;2.25;;;37.20;99.90;;;;;;5086486;28;20208;-71
2022/07/08 10:16:46;;;;;;;3.95;1.95;;;38.40;99.90;;;;;;5088675;28;20228;-71
2022/07/08 10:19:17;;;;;;;4.78;2.17;;;35.30;99.90;;;;;;5088270;28;20212;-71
2022/07/08 10:21:50;;;;;;;3.00;1.83;;;36.50;99.90;;;;;;5089727;28;20247;-72
2022/07/08 10:24:22;;;;;;;6.18;2.03;;;38.10;99.90;;;;;;5087688;28;20205;-71
2022/07/08 10:26:49;;;;;;;2.42;2.20;;;39.20;99.90;;;;;;5088231;28;20211;-72
2022/07/08 10:29:17;;;;;;;5.40;2.35;;;37.20;99.90;;;;;;5086433;28;20206;-71
2022/07/08 10:31:47;;;;;;;2.25;2.13;;;37.80;99.90;;;;;;5088919;28;20257;-72
2022/07/08 10:34:18;;;;;;;3.42;3.13;;;38.00;99.90;;;;;;5087544;28;20287;-71
2022/07/08 10:36:49;;;;;;;4.05;3.65;;;36.20;99.90;;;;;;5089502;28;20223;-73
2022/07/08 10:39:26;;;;;;;3.53;3.22;;;33.10;99.90;;;;;;5074308;28;20217;-71
2022/07/08 10:41:57;;;;;;;6.93;2.67;;;34.50;99.90;;;;;;5069809;28;20213;-72
2022/07/08 10:44:52;;;;;;;3.17;1.80;;;31.40;99.90;;;;;;5069913;28;20215;-71
2022/07/08 10:47:25;;;;;;;3.10;2.10;;;29.80;99.90;;;;;;5074242;28;20220;-71
2022/07/08 10:49:52;;;;;;;3.35;1.77;;;29.20;99.90;;;;;;5073675;28;20261;-71
2022/07/08 10:52:31;;;;;;;7.40;2.45;;;28.70;99.90;;;;;;5074505;28;20205;-73
2022/07/08 10:55:10;;;;;;;2.55;1.98;;;28.20;99.90;;;;;;5073508;28;20275;-72
2022/07/08 10:57:37;;;;;;;2.05;1.83;;;28.10;99.90;;;;;;5073548;28;20687;-72
2022/07/08 11:00:08;;;;;;;3.17;2.20;;;28.20;99.90;;;;;;5073152;28;20269;-72
2022/07/08 11:02:40;;;;;;;1.58;1.30;;;28.20;99.90;;;;;;5084938;28;20600;-72
2022/07/08 11:05:08;;;;;;;3.72;2.03;;;28.10;99.90;;;;;;5073769;28;20229;-72
2022/07/08 11:07:35;;;;;;;2.78;2.58;;;28.30;99.90;;;;;;5073184;28;20678;-72
2022/07/08 11:10:07;;;;;;;3.05;1.80;;;28.60;99.90;;;;;;5092807;28;20197;-72
2022/07/08 11:12:36;;;;;;;2.65;1.77;;;28.70;99.90;;;;;;5093652;28;20221;-72
2022/07/08 11:15:07;;;;;;;2.67;2.00;;;28.60;99.90;;;;;;5093721;28;20202;-73
2022/07/08 11:17:36;;;;;;;3.05;2.70;;;28.30;99.90;;;;;;5093796;28;20255;-72
2022/07/08 11:20:09;;;;;;;2.05;1.85;;;28.50;99.90;;;;;;5093457;28;20251;-72
2022/07/08 11:22:37;;;;;;;3.42;1.90;;;28.30;99.90;;;;;;5093673;28;20217;-73
2022/07/08 11:25:06;;;;;;;2.55;1.83;;;28.50;99.90;;;;;;5093237;28;20225;-71
2022/07/08 11:27:34;;;;;;;3.55;2.33;;;28.20;99.90;;;;;;5093726;28;20209;-72
2022/07/08 11:30:02;;;;;;;3.72;2.88;;;28.30;99.90;;;;;;5093452;28;20205;-71
2022/07/08 11:32:31;;;;;;;2.17;1.80;;;28.10;99.90;;;;;;5093379;28;20284;-72
2022/07/08 11:34:58;;;;;;;3.03;2.42;;;28.10;99.90;;;;;;5092951;28;20665;-73
2022/07/08 11:37:25;;;;;;;2.78;1.58;;;28.50;99.90;;;;;;5093321;28;20286;-72
2022/07/08 11:39:53;;;;;;;4.10;1.90;;;28.40;99.90;;;;;;5092810;28;20209;-71
2022/07/08 11:42:20;;;;;;;4.63;2.63;;;28.50;99.90;;;;;;5093304;28;20255;-72
2022/07/08 11:44:48;;;;;;;2.70;2.50;;;28.80;99.90;;;;;;5093682;28;20263;-72
2022/07/08 11:47:19;;;;;;;3.92;2.28;;;29.00;99.90;;;;;;5093067;28;20267;-72
2022/07/08 11:49:49;;;;;;;2.20;2.00;;;29.00;99.90;;;;;;5093348;28;20255;-72
2022/07/08 11:52:17;;;;;;;1.58;1.33;;;29.00;99.90;;;;;;5093351;28;20665;-72
2022/07/08 11:54:47;;;;;;;2.30;1.92;;;29.00;99.90;;;;;;5093134;28;20304;-72
2022/07/08 11:57:15;;;;;;;3.58;1.92;;;28.90;99.90;;;;;;5092561;28;20233;-72
2022/07/08 11:59:44;;;;;;;2.13;1.85;;;29.00;99.90;;;;;;5092957;28;20623;-71
2022/07/08 12:02:12;;;;;;;2.25;1.98;;;29.10;99.90;;;;;;5092256;28;20653;-72
2022/07/08 12:04:43;;;;;;;3.38;2.53;;;29.10;99.90;;;;;;5092618;28;20205;-71
2022/07/08 12:07:23;;;;;;;2.28;2.08;;;28.90;99.90;;;;;;5081102;28;20214;-71
2022/07/08 12:09:58;;;;;;;2.13;1.70;;;28.80;99.90;;;;;;5091765;28;20252;-72
2022/07/08 12:12:26;;;;;;;2.35;2.15;;;28.90;99.90;;;;;;5092770;28;20220;-70
2022/07/08 12:14:53;;;;;;;2.25;2.05;;;28.90;99.10;;;;;;5092263;28;20665;-72
2022/07/08 12:17:25;;;;;;;4.85;2.30;;;28.90;99.20;;;;;;5092781;28;20218;-72
2022/07/08 12:19:53;;;;;;;2.78;1.67;;;29.10;99.40;;;;;;5092130;28;20292;-72
2022/07/08 12:22:48;;;;;;;1.33;1.20;;;29.50;99.90;;;;;;5092655;28;20270;-73
2022/07/08 12:25:16;;;;;;;5.57;1.90;;;29.70;99.90;;;;;;5092204;28;20217;-71
2022/07/08 12:27:44;;;;;;;2.17;1.88;;;29.70;99.90;;;;;;5092430;28;20678;-73
2022/07/08 12:30:12;;;;;;;3.45;2.03;;;29.60;99.90;;;;;;5091806;28;20665;-72
2022/07/08 12:32:40;;;;;;;2.58;1.85;;;29.20;99.70;;;;;;5092568;28;20314;-72
2022/07/08 12:35:09;;;;;;;3.72;2.17;;;29.50;99.00;;;;;;5091923;28;20685;-72
2022/07/08 12:37:36;;;;;;;3.05;1.70;;;29.50;98.20;;;;;;5092166;28;20795;-73
2022/07/08 12:40:16;;;;;;;2.63;1.40;;;29.20;97.80;;;;;;5091534;28;20263;-72
2022/07/08 12:42:43;;;;;;;5.80;2.17;;;29.40;98.00;;;;;;5092225;28;20209;-73
2022/07/08 12:45:17;;;;;;;1.95;1.75;;;29.30;97.80;;;;;;5091674;28;20209;-72
2022/07/08 12:47:44;;;;;;;1.48;1.20;;;29.30;98.20;;;;;;5092125;28;20221;-73
2022/07/08 12:50:11;;;;;;;2.47;1.63;;;29.40;99.90;;;;;;5091318;28;20648;-72
2022/07/08 12:52:38;;;;;;;1.95;1.50;;;29.50;97.50;;;;;;5091870;28;20259;-73
2022/07/08 12:55:06;;;;;;;6.93;2.03;;;29.80;98.30;;;;;;5091704;28;20209;-72
2022/07/08 12:57:35;;;;;;;4.80;2.03;;;29.70;97.90;;;;;;5091758;28;20609;-72